sensor_id;sensor_type;location;lat;lon;timestamp;pressure;altitude;pressure_sealevel;temperature;humidity
29907;BME280;16776;50.958;10.994;2023-03-23T00:02:22;97585.38;;;12.34;85.50
29907;BME280;16776;50.958;10.994;2023-03-23T00:04:55;97580.38;;;12.31;85.73
29907;BME280;16776;50.958;10.994;2023-03-23T00:07:22;97582.19;;;12.29;85.82
29907;BME280;16776;50.958;10.994;2023-03-23T00:09:54;97578.69;;;12.30;85.13
29907;BME280;16776;50.958;10.994;2023-03-23T00:12:21;97568.69;;;12.23;85.90
29907;BME280;16776;50.958;10.994;2023-03-23T00:14:58;97587.28;;;12.30;85.52
29907;BME280;16776;50.958;10.994;2023-03-23T00:17:25;97582.94;;;12.31;85.62
29907;BME280;16776;50.958;10.994;2023-03-23T00:19:53;97587.19;;;12.32;85.57
29907;BME280;16776;50.958;10.994;2023-03-23T00:22:20;97579.59;;;12.29;85.21
29907;BME280;16776;50.958;10.994;2023-03-23T00:24:53;97593.13;;;12.34;85.77
29907;BME280;16776;50.958;10.994;2023-03-23T00:27:21;97588.09;;;12.31;85.80
29907;BME280;16776;50.958;10.994;2023-03-23T00:29:48;97583.84;;;12.30;85.36
29907;BME280;16776;50.958;10.994;2023-03-23T00:32:18;97579.59;;;12.29;85.63
29907;BME280;16776;50.958;10.994;2023-03-23T00:34:46;97576.09;;;12.30;85.56
29907;BME280;16776;50.958;10.994;2023-03-23T00:37:15;97575.97;;;12.33;85.36
29907;BME280;16776;50.958;10.994;2023-03-23T00:39:45;97582.09;;;12.30;85.52
29907;BME280;16776;50.958;10.994;2023-03-23T00:42:13;97580.38;;;12.31;84.98
29907;BME280;16776;50.958;10.994;2023-03-23T00:44:42;97575.06;;;12.34;85.22
29907;BME280;16776;50.958;10.994;2023-03-23T00:47:09;97579.53;;;12.30;85.25
29907;BME280;16776;50.958;10.994;2023-03-23T00:49:36;97577.00;;;12.29;85.53
29907;BME280;16776;50.958;10.994;2023-03-23T00:52:05;97584.69;;;12.30;85.33
29907;BME280;16776;50.958;10.994;2023-03-23T00:54:33;97573.38;;;12.33;85.73
29907;BME280;16776;50.958;10.994;2023-03-23T00:57:00;97565.19;;;12.24;85.22
29907;BME280;16776;50.958;10.994;2023-03-23T00:59:27;97577.13;;;12.27;85.45
29907;BME280;16776;50.958;10.994;2023-03-23T01:01:53;97565.13;;;12.26;85.30
29907;BME280;16776;50.958;10.994;2023-03-23T01:04:20;97568.59;;;12.25;85.52
29907;BME280;16776;50.958;10.994;2023-03-23T01:06:50;97559.25;;;12.22;85.48
29907;BME280;16776;50.958;10.994;2023-03-23T01:09:18;97559.25;;;12.22;85.56
29907;BME280;16776;50.958;10.994;2023-03-23T01:11:48;97561.84;;;12.22;85.46
29907;BME280;16776;50.958;10.994;2023-03-23T01:14:18;97555.94;;;12.20;85.53
29907;BME280;16776;50.958;10.994;2023-03-23T01:16:45;97549.47;;;12.12;85.42
29907;BME280;16776;50.958;10.994;2023-03-23T01:19:11;97552.75;;;12.15;85.33
29907;BME280;16776;50.958;10.994;2023-03-23T01:21:39;97552.91;;;12.12;85.60
29907;BME280;16776;50.958;10.994;2023-03-23T01:24:07;97546.06;;;12.11;85.22
29907;BME280;16776;50.958;10.994;2023-03-23T01:26:34;97550.38;;;12.11;85.73
29907;BME280;16776;50.958;10.994;2023-03-23T01:29:02;97539.16;;;12.12;85.79
29907;BME280;16776;50.958;10.994;2023-03-23T01:31:29;97538.50;;;12.08;85.71
29907;BME280;16776;50.958;10.994;2023-03-23T01:33:55;97544.50;;;12.09;86.00
29907;BME280;16776;50.958;10.994;2023-03-23T01:36:24;97539.31;;;12.09;85.36
29907;BME280;16776;50.958;10.994;2023-03-23T01:38:52;97530.88;;;12.05;85.37
29907;BME280;16776;50.958;10.994;2023-03-23T01:41:19;97531.97;;;12.01;85.33
29907;BME280;16776;50.958;10.994;2023-03-23T01:44:02;97536.75;;;12.09;85.37
29907;BME280;16776;50.958;10.994;2023-03-23T01:46:30;97531.19;;;11.99;85.38
29907;BME280;16776;50.958;10.994;2023-03-23T01:49:00;97532.09;;;11.98;86.08
29907;BME280;16776;50.958;10.994;2023-03-23T01:51:33;97526.94;;;11.98;85.97
29907;BME280;16776;50.958;10.994;2023-03-23T01:54:04;97519.28;;;11.97;85.53
29907;BME280;16776;50.958;10.994;2023-03-23T01:56:36;97509.13;;;11.94;85.80
29907;BME280;16776;50.958;10.994;2023-03-23T01:59:11;97496.53;;;11.88;85.59
29907;BME280;16776;50.958;10.994;2023-03-23T02:01:40;97507.75;;;11.87;86.26
29907;BME280;16776;50.958;10.994;2023-03-23T02:04:10;97509.50;;;11.86;86.53
29907;BME280;16776;50.958;10.994;2023-03-23T02:06:38;97514.66;;;11.86;86.00
29907;BME280;16776;50.958;10.994;2023-03-23T02:09:04;97500.97;;;11.84;86.72
29907;BME280;16776;50.958;10.994;2023-03-23T02:11:32;97498.56;;;11.81;86.84
29907;BME280;16776;50.958;10.994;2023-03-23T02:13:59;97483.41;;;11.75;86.45
29907;BME280;16776;50.958;10.994;2023-03-23T02:16:33;97481.13;;;11.86;86.47
29907;BME280;16776;50.958;10.994;2023-03-23T02:19:12;97487.19;;;11.85;86.29
29907;BME280;16776;50.958;10.994;2023-03-23T02:22:07;97481.28;;;11.83;87.00
29907;BME280;16776;50.958;10.994;2023-03-23T02:24:57;97479.63;;;11.82;86.77
29907;BME280;16776;50.958;10.994;2023-03-23T02:27:42;97472.84;;;11.79;86.63
29907;BME280;16776;50.958;10.994;2023-03-23T02:33:32;97467.03;;;11.76;87.13
29907;BME280;16776;50.958;10.994;2023-03-23T02:36:08;97460.25;;;11.73;87.18
29907;BME280;16776;50.958;10.994;2023-03-23T02:38:40;97451.63;;;11.74;87.38
29907;BME280;16776;50.958;10.994;2023-03-23T02:41:10;97476.56;;;11.74;87.33
29907;BME280;16776;50.958;10.994;2023-03-23T02:43:40;97463.53;;;11.77;87.06
29907;BME280;16776;50.958;10.994;2023-03-23T02:46:10;97459.41;;;11.73;87.15
29907;BME280;16776;50.958;10.994;2023-03-23T02:48:39;97455.63;;;11.80;86.68
29907;BME280;16776;50.958;10.994;2023-03-23T02:51:08;97452.22;;;11.79;86.67
29907;BME280;16776;50.958;10.994;2023-03-23T02:53:39;97451.38;;;11.79;86.61
29907;BME280;16776;50.958;10.994;2023-03-23T02:56:09;97459.81;;;11.82;86.74
29907;BME280;16776;50.958;10.994;2023-03-23T02:58:36;97453.72;;;11.83;86.84
29907;BME280;16776;50.958;10.994;2023-03-23T03:01:44;97468.69;;;11.94;87.03
29907;BME280;16776;50.958;10.994;2023-03-23T03:04:06;97458.50;;;11.91;86.99
29907;BME280;16776;50.958;10.994;2023-03-23T03:06:44;97455.84;;;11.93;86.98
29907;BME280;16776;50.958;10.994;2023-03-23T03:09:20;97456.75;;;11.92;87.14
29907;BME280;16776;50.958;10.994;2023-03-23T03:11:55;97449.84;;;11.92;87.35
29907;BME280;16776;50.958;10.994;2023-03-23T03:14:29;97445.53;;;11.93;86.98
29907;BME280;16776;50.958;10.994;2023-03-23T03:17:02;97441.19;;;11.93;87.64
29907;BME280;16776;50.958;10.994;2023-03-23T03:19:35;97425.88;;;11.90;87.42
29907;BME280;16776;50.958;10.994;2023-03-23T03:22:04;97430.22;;;11.90;87.67
29907;BME280;16776;50.958;10.994;2023-03-23T03:24:33;97427.25;;;11.80;87.06
29907;BME280;16776;50.958;10.994;2023-03-23T03:27:04;97445.53;;;11.93;87.57
29907;BME280;16776;50.958;10.994;2023-03-23T03:29:34;97431.78;;;11.92;87.54
29907;BME280;16776;50.958;10.994;2023-03-23T03:32:04;97440.44;;;11.91;87.77
29907;BME280;16776;50.958;10.994;2023-03-23T03:34:34;97438.63;;;11.93;87.24
29907;BME280;16776;50.958;10.994;2023-03-23T03:37:01;97436.28;;;11.89;87.55
29907;BME280;16776;50.958;10.994;2023-03-23T03:39:31;97445.59;;;11.91;87.31
29907;BME280;16776;50.958;10.994;2023-03-23T03:42:00;97438.69;;;11.92;87.64
29907;BME280;16776;50.958;10.994;2023-03-23T03:44:26;97435.38;;;11.90;87.07
29907;BME280;16776;50.958;10.994;2023-03-23T03:46:53;97452.59;;;11.89;87.44
29907;BME280;16776;50.958;10.994;2023-03-23T03:49:20;97453.50;;;11.88;87.67
29907;BME280;16776;50.958;10.994;2023-03-23T03:51:49;97461.97;;;11.90;87.68
29907;BME280;16776;50.958;10.994;2023-03-23T03:54:15;97462.91;;;11.89;87.40
29907;BME280;16776;50.958;10.994;2023-03-23T03:56:42;97476.72;;;11.88;87.25
29907;BME280;16776;50.958;10.994;2023-03-23T03:59:09;97468.97;;;11.88;87.62
29907;BME280;16776;50.958;10.994;2023-03-23T04:01:39;97455.06;;;11.91;87.30
29907;BME280;16776;50.958;10.994;2023-03-23T04:04:06;97458.66;;;11.88;87.78
29907;BME280;16776;50.958;10.994;2023-03-23T04:06:34;97471.63;;;11.87;88.04
29907;BME280;16776;50.958;10.994;2023-03-23T04:09:05;97485.97;;;11.92;87.79
29907;BME280;16776;50.958;10.994;2023-03-23T04:11:33;97479.31;;;11.88;87.56
29907;BME280;16776;50.958;10.994;2023-03-23T04:13:59;97486.28;;;11.86;88.03
29907;BME280;16776;50.958;10.994;2023-03-23T04:16:27;97496.53;;;11.88;87.62
29907;BME280;16776;50.958;10.994;2023-03-23T04:18:55;97506.84;;;11.88;87.59
29907;BME280;16776;50.958;10.994;2023-03-23T04:21:22;97509.41;;;11.88;87.68
29907;BME280;16776;50.958;10.994;2023-03-23T04:23:50;97509.41;;;11.88;87.52
29907;BME280;16776;50.958;10.994;2023-03-23T04:26:17;97510.94;;;11.92;87.60
29907;BME280;16776;50.958;10.994;2023-03-23T04:28:44;97495.69;;;11.87;87.85
29907;BME280;16776;50.958;10.994;2023-03-23T04:31:11;97500.84;;;11.87;87.86
29907;BME280;16776;50.958;10.994;2023-03-23T04:33:38;97496.59;;;11.86;88.01
29907;BME280;16776;50.958;10.994;2023-03-23T04:36:06;97495.75;;;11.86;87.89
29907;BME280;16776;50.958;10.994;2023-03-23T04:38:33;97500.09;;;11.85;87.99
29907;BME280;16776;50.958;10.994;2023-03-23T04:41:00;97510.41;;;11.85;88.38
29907;BME280;16776;50.958;10.994;2023-03-23T04:43:29;97516.31;;;11.87;88.16
29907;BME280;16776;50.958;10.994;2023-03-23T04:45:56;97503.56;;;11.84;87.93
29907;BME280;16776;50.958;10.994;2023-03-23T04:48:23;97508.72;;;11.84;88.10
29907;BME280;16776;50.958;10.994;2023-03-23T04:50:50;97516.56;;;11.82;88.44
29907;BME280;16776;50.958;10.994;2023-03-23T04:53:17;97509.72;;;11.81;88.50
29907;BME280;16776;50.958;10.994;2023-03-23T04:55:44;97507.22;;;11.80;88.21
29907;BME280;16776;50.958;10.994;2023-03-23T04:58:11;97516.69;;;11.79;88.70
29907;BME280;16776;50.958;10.994;2023-03-23T05:00:41;97523.53;;;11.80;88.00
29907;BME280;16776;50.958;10.994;2023-03-23T05:03:09;97516.78;;;11.78;88.19
29907;BME280;16776;50.958;10.994;2023-03-23T05:05:39;97527.19;;;11.76;88.66
29907;BME280;16776;50.958;10.994;2023-03-23T05:08:05;97509.97;;;11.77;88.20
29907;BME280;16776;50.958;10.994;2023-03-23T05:10:32;97524.66;;;11.75;88.88
29907;BME280;16776;50.958;10.994;2023-03-23T05:12:58;97537.63;;;11.73;89.20
29907;BME280;16776;50.958;10.994;2023-03-23T05:15:28;97543.88;;;11.69;88.92
29907;BME280;16776;50.958;10.994;2023-03-23T05:17:56;97543.75;;;11.71;89.17
29907;BME280;16776;50.958;10.994;2023-03-23T05:20:23;97543.16;;;11.66;89.63
29907;BME280;16776;50.958;10.994;2023-03-23T05:22:50;97542.47;;;11.62;89.53
29907;BME280;16776;50.958;10.994;2023-03-23T05:25:18;97543.44;;;11.60;89.27
29907;BME280;16776;50.958;10.994;2023-03-23T05:27:45;97549.66;;;11.56;89.51
29907;BME280;16776;50.958;10.994;2023-03-23T05:30:18;97543.78;;;11.52;89.75
29907;BME280;16776;50.958;10.994;2023-03-23T05:32:45;97548.63;;;11.41;89.85
29907;BME280;16776;50.958;10.994;2023-03-23T05:35:17;97550.91;;;11.47;89.57
29907;BME280;16776;50.958;10.994;2023-03-23T05:37:44;97557.19;;;11.41;90.17
29907;BME280;16776;50.958;10.994;2023-03-23T05:40:14;97559.16;;;11.36;89.87
29907;BME280;16776;50.958;10.994;2023-03-23T05:42:41;97567.78;;;11.35;90.40
29907;BME280;16776;50.958;10.994;2023-03-23T05:45:09;97579.06;;;11.33;90.63
29907;BME280;16776;50.958;10.994;2023-03-23T05:47:36;97571.56;;;11.28;90.45
29907;BME280;16776;50.958;10.994;2023-03-23T05:50:03;97578.50;;;11.26;90.61
29907;BME280;16776;50.958;10.994;2023-03-23T05:52:33;97578.50;;;11.26;90.85
29907;BME280;16776;50.958;10.994;2023-03-23T05:55:00;97573.59;;;11.22;90.65
29907;BME280;16776;50.958;10.994;2023-03-23T05:57:28;97561.19;;;11.11;90.89
29907;BME280;16776;50.958;10.994;2023-03-23T05:59:55;97572.91;;;11.18;90.96
29907;BME280;16776;50.958;10.994;2023-03-23T06:02:39;97574.47;;;11.21;91.31
29907;BME280;16776;50.958;10.994;2023-03-23T06:05:09;97584.25;;;11.14;91.25
29907;BME280;16776;50.958;10.994;2023-03-23T06:07:37;97579.91;;;11.15;91.38
29907;BME280;16776;50.958;10.994;2023-03-23T06:10:05;97585.22;;;11.12;91.49
29907;BME280;16776;50.958;10.994;2023-03-23T06:12:33;97590.44;;;11.10;91.66
29907;BME280;16776;50.958;10.994;2023-03-23T06:15:08;97582.56;;;11.13;91.61
29907;BME280;16776;50.958;10.994;2023-03-23T06:17:35;97594.81;;;11.08;91.47
29907;BME280;16776;50.958;10.994;2023-03-23T06:20:02;97586.34;;;11.06;92.14
29907;BME280;16776;50.958;10.994;2023-03-23T06:22:34;97593.31;;;11.04;92.24
29907;BME280;16776;50.958;10.994;2023-03-23T06:25:02;97602.72;;;11.05;92.12
29907;BME280;16776;50.958;10.994;2023-03-23T06:27:29;97597.72;;;11.00;92.48
29907;BME280;16776;50.958;10.994;2023-03-23T06:29:55;97590.94;;;10.99;92.36
29907;BME280;16776;50.958;10.994;2023-03-23T06:32:23;97600.41;;;10.99;91.96
29907;BME280;16776;50.958;10.994;2023-03-23T06:34:51;97593.56;;;10.98;92.37
29907;BME280;16776;50.958;10.994;2023-03-23T06:37:18;97592.81;;;10.96;92.90
29907;BME280;16776;50.958;10.994;2023-03-23T06:39:44;97591.13;;;10.95;93.26
29907;BME280;16776;50.958;10.994;2023-03-23T06:42:12;97588.53;;;10.95;92.98
29907;BME280;16776;50.958;10.994;2023-03-23T06:44:39;97586.13;;;10.92;93.43
29907;BME280;16776;50.958;10.994;2023-03-23T06:47:06;97586.34;;;10.87;93.51
29907;BME280;16776;50.958;10.994;2023-03-23T06:49:37;97584.50;;;10.89;93.54
29907;BME280;16776;50.958;10.994;2023-03-23T06:52:04;97595.03;;;10.85;94.35
29907;BME280;16776;50.958;10.994;2023-03-23T06:54:36;97586.47;;;10.84;94.62
29907;BME280;16776;50.958;10.994;2023-03-23T06:57:02;97586.56;;;10.81;93.99
29907;BME280;16776;50.958;10.994;2023-03-23T06:59:30;97588.34;;;10.81;94.48
29907;BME280;16776;50.958;10.994;2023-03-23T07:01:57;97590.16;;;10.79;94.15
29907;BME280;16776;50.958;10.994;2023-03-23T07:04:23;97597.94;;;10.77;94.94
29907;BME280;16776;50.958;10.994;2023-03-23T07:06:50;97589.44;;;10.75;94.28
29907;BME280;16776;50.958;10.994;2023-03-23T07:09:21;97582.69;;;10.73;94.37
29907;BME280;16776;50.958;10.994;2023-03-23T07:11:50;97579.13;;;10.75;94.74
29907;BME280;16776;50.958;10.994;2023-03-23T07:14:17;97585.38;;;10.70;94.76
29907;BME280;16776;50.958;10.994;2023-03-23T07:16:45;97568.13;;;10.72;95.06
29907;BME280;16776;50.958;10.994;2023-03-23T07:19:11;97572.59;;;10.68;95.32
29907;BME280;16776;50.958;10.994;2023-03-23T07:21:41;97567.44;;;10.68;94.71
29907;BME280;16776;50.958;10.994;2023-03-23T07:24:10;97570.66;;;10.73;95.07
29907;BME280;16776;50.958;10.994;2023-03-23T07:26:39;97557.91;;;10.70;96.29
29907;BME280;16776;50.958;10.994;2023-03-23T07:29:05;97558.75;;;10.71;95.69
29907;BME280;16776;50.958;10.994;2023-03-23T07:31:36;97550.81;;;10.75;96.34
29907;BME280;16776;50.958;10.994;2023-03-23T07:34:06;97561.25;;;10.72;96.37
29907;BME280;16776;50.958;10.994;2023-03-23T07:36:33;97566.41;;;10.72;96.40
29907;BME280;16776;50.958;10.994;2023-03-23T07:39:02;97559.47;;;10.74;96.50
29907;BME280;16776;50.958;10.994;2023-03-23T07:41:30;97571.41;;;10.75;96.50
29907;BME280;16776;50.958;10.994;2023-03-23T07:43:59;97558.47;;;10.77;96.43
29907;BME280;16776;50.958;10.994;2023-03-23T07:46:30;97560.91;;;10.80;96.40
29907;BME280;16776;50.958;10.994;2023-03-23T07:48:57;97557.44;;;10.81;96.99
29907;BME280;16776;50.958;10.994;2023-03-23T07:51:25;97551.19;;;10.86;96.76
29907;BME280;16776;50.958;10.994;2023-03-23T07:53:53;97553.81;;;10.85;97.37
29907;BME280;16776;50.958;10.994;2023-03-23T07:56:20;97563.00;;;10.90;96.64
29907;BME280;16776;50.958;10.994;2023-03-23T07:58:46;97568.84;;;10.94;97.19
29907;BME280;16776;50.958;10.994;2023-03-23T08:01:13;97569.50;;;10.99;97.72
29907;BME280;16776;50.958;10.994;2023-03-23T08:03:43;97560.31;;;11.12;97.77
29907;BME280;16776;50.958;10.994;2023-03-23T08:06:09;97575.31;;;11.21;98.52
29907;BME280;16776;50.958;10.994;2023-03-23T08:08:37;97576.13;;;11.40;98.36
29907;BME280;16776;50.958;10.994;2023-03-23T08:11:06;97569.44;;;11.55;97.53
29907;BME280;16776;50.958;10.994;2023-03-23T08:13:32;97574.81;;;11.69;97.94
29907;BME280;16776;50.958;10.994;2023-03-23T08:16:00;97566.63;;;11.78;97.60
29907;BME280;16776;50.958;10.994;2023-03-23T08:18:28;97578.25;;;11.87;96.77
29907;BME280;16776;50.958;10.994;2023-03-23T08:20:55;97576.13;;;11.95;97.11
29907;BME280;16776;50.958;10.994;2023-03-23T08:23:22;97579.16;;;12.03;97.19
29907;BME280;16776;50.958;10.994;2023-03-23T08:25:53;97582.97;;;12.13;96.43
29907;BME280;16776;50.958;10.994;2023-03-23T08:28:20;97580.06;;;12.19;96.55
29907;BME280;16776;50.958;10.994;2023-03-23T08:30:46;97576.28;;;12.27;96.25
29907;BME280;16776;50.958;10.994;2023-03-23T08:33:16;97571.53;;;12.35;95.77
29907;BME280;16776;50.958;10.994;2023-03-23T08:35:43;97568.97;;;12.35;96.30
29907;BME280;16776;50.958;10.994;2023-03-23T08:38:10;97573.84;;;12.41;95.56
29907;BME280;16776;50.958;10.994;2023-03-23T08:40:38;97581.41;;;12.44;95.44
29907;BME280;16776;50.958;10.994;2023-03-23T08:43:06;97586.44;;;12.47;95.46
29907;BME280;16776;50.958;10.994;2023-03-23T08:45:32;97577.84;;;12.46;95.53
29907;BME280;16776;50.958;10.994;2023-03-23T08:47:59;97594.00;;;12.50;95.24
29907;BME280;16776;50.958;10.994;2023-03-23T08:50:27;97601.53;;;12.54;95.08
29907;BME280;16776;50.958;10.994;2023-03-23T08:52:56;97592.13;;;12.53;94.58
29907;BME280;16776;50.958;10.994;2023-03-23T08:55:23;97596.47;;;12.53;93.97
29907;BME280;16776;50.958;10.994;2023-03-23T08:57:53;97597.13;;;12.56;94.33
29907;BME280;16776;50.958;10.994;2023-03-23T09:00:22;97600.59;;;12.55;94.27
29907;BME280;16776;50.958;10.994;2023-03-23T09:02:52;97595.63;;;12.52;93.70
29907;BME280;16776;50.958;10.994;2023-03-23T09:05:22;97602.47;;;12.53;94.24
29907;BME280;16776;50.958;10.994;2023-03-23T09:07:51;97613.59;;;12.54;93.94
29907;BME280;16776;50.958;10.994;2023-03-23T09:10:18;97605.94;;;12.52;93.68
29907;BME280;16776;50.958;10.994;2023-03-23T09:12:46;97606.78;;;12.53;93.32
29907;BME280;16776;50.958;10.994;2023-03-23T09:15:18;97596.28;;;12.56;93.38
29907;BME280;16776;50.958;10.994;2023-03-23T09:17:47;97598.09;;;12.54;92.45
29907;BME280;16776;50.958;10.994;2023-03-23T09:20:19;97597.50;;;12.49;93.15
29907;BME280;16776;50.958;10.994;2023-03-23T09:22:47;97598.50;;;12.46;92.61
29907;BME280;16776;50.958;10.994;2023-03-23T09:25:17;97617.44;;;12.47;92.66
29907;BME280;16776;50.958;10.994;2023-03-23T09:27:45;97620.06;;;12.45;92.55
29907;BME280;16776;50.958;10.994;2023-03-23T09:30:14;97630.53;;;12.42;92.89
29907;BME280;16776;50.958;10.994;2023-03-23T09:32:41;97625.56;;;12.39;93.11
29907;BME280;16776;50.958;10.994;2023-03-23T09:35:11;97611.22;;;12.34;93.12
29907;BME280;16776;50.958;10.994;2023-03-23T09:37:39;97617.75;;;12.41;93.18
29907;BME280;16776;50.958;10.994;2023-03-23T09:40:11;97625.31;;;12.44;93.09
29907;BME280;16776;50.958;10.994;2023-03-23T09:42:49;97633.81;;;12.46;93.26
29907;BME280;16776;50.958;10.994;2023-03-23T09:45:23;97632.16;;;12.45;93.48
29907;BME280;16776;50.958;10.994;2023-03-23T09:48:05;97629.41;;;12.48;92.86
29907;BME280;16776;50.958;10.994;2023-03-23T09:50:40;97630.25;;;12.48;93.60
29907;BME280;16776;50.958;10.994;2023-03-23T09:53:12;97632.91;;;12.47;93.13
29907;BME280;16776;50.958;10.994;2023-03-23T09:55:41;97639.13;;;12.43;93.59
29907;BME280;16776;50.958;10.994;2023-03-23T09:58:14;97644.00;;;12.49;93.33
29907;BME280;16776;50.958;10.994;2023-03-23T10:00:46;97644.91;;;12.48;93.62
29907;BME280;16776;50.958;10.994;2023-03-23T10:03:15;97636.47;;;12.44;93.34
29907;BME280;16776;50.958;10.994;2023-03-23T10:05:47;97641.25;;;12.52;93.68
29907;BME280;16776;50.958;10.994;2023-03-23T10:08:17;97643.91;;;12.50;93.71
29907;BME280;16776;50.958;10.994;2023-03-23T10:10:55;97643.53;;;12.58;93.27
29907;BME280;16776;50.958;10.994;2023-03-23T10:13:40;97636.69;;;12.57;93.53
29907;BME280;16776;50.958;10.994;2023-03-23T10:16:10;97631.19;;;12.47;93.82
29907;BME280;16776;50.958;10.994;2023-03-23T10:18:41;97646.88;;;12.60;94.21
29907;BME280;16776;50.958;10.994;2023-03-23T10:21:16;97649.03;;;12.69;93.61
29907;BME280;16776;50.958;10.994;2023-03-23T10:23:50;97642.88;;;12.72;93.71
29907;BME280;16776;50.958;10.994;2023-03-23T10:26:29;97662.22;;;12.80;94.08
29907;BME280;16776;50.958;10.994;2023-03-23T10:29:04;97648.41;;;12.81;93.84
29907;BME280;16776;50.958;10.994;2023-03-23T10:31:38;97646.41;;;12.86;93.59
29907;BME280;16776;50.958;10.994;2023-03-23T10:34:11;97639.28;;;12.91;93.70
29907;BME280;16776;50.958;10.994;2023-03-23T10:36:51;97634.50;;;12.99;93.20
29907;BME280;16776;50.958;10.994;2023-03-23T10:39:23;97630.75;;;12.89;93.18
29907;BME280;16776;50.958;10.994;2023-03-23T10:41:50;97635.59;;;12.95;93.23
29907;BME280;16776;50.958;10.994;2023-03-23T10:44:19;97660.47;;;12.98;93.24
29907;BME280;16776;50.958;10.994;2023-03-23T10:46:51;97654.97;;;13.04;93.12
29907;BME280;16776;50.958;10.994;2023-03-23T10:49:23;97653.13;;;13.06;92.70
29907;BME280;16776;50.958;10.994;2023-03-23T10:51:57;97646.06;;;13.10;92.53
29907;BME280;16776;50.958;10.994;2023-03-23T10:54:31;97639.38;;;13.06;92.64
29907;BME280;16776;50.958;10.994;2023-03-23T10:56:58;97651.38;;;13.07;93.02
29907;BME280;16776;50.958;10.994;2023-03-23T10:59:29;97643.31;;;13.13;92.95
29907;BME280;16776;50.958;10.994;2023-03-23T11:02:00;97642.25;;;13.17;92.18
29907;BME280;16776;50.958;10.994;2023-03-23T11:04:28;97636.97;;;13.18;91.86
29907;BME280;16776;50.958;10.994;2023-03-23T11:07:00;97632.31;;;13.25;91.88
29907;BME280;16776;50.958;10.994;2023-03-23T11:09:35;97638.81;;;13.32;91.82
29907;BME280;16776;50.958;10.994;2023-03-23T11:12:03;97638.75;;;13.33;91.91
29907;BME280;16776;50.958;10.994;2023-03-23T11:14:32;97647.94;;;13.39;91.77
29907;BME280;16776;50.958;10.994;2023-03-23T11:17:00;97661.44;;;13.44;91.41
29907;BME280;16776;50.958;10.994;2023-03-23T11:19:32;97657.72;;;13.50;91.35
29907;BME280;16776;50.958;10.994;2023-03-23T11:22:07;97651.41;;;13.55;91.36
29907;BME280;16776;50.958;10.994;2023-03-23T11:24:36;97648.03;;;13.53;91.29
29907;BME280;16776;50.958;10.994;2023-03-23T11:27:04;97644.38;;;13.57;91.07
29907;BME280;16776;50.958;10.994;2023-03-23T11:29:35;97647.72;;;13.59;91.01
29907;BME280;16776;50.958;10.994;2023-03-23T11:32:04;97646.72;;;13.62;91.03
29907;BME280;16776;50.958;10.994;2023-03-23T11:34:35;97646.72;;;13.62;91.17
29907;BME280;16776;50.958;10.994;2023-03-23T11:37:10;97650.88;;;13.64;91.08
29907;BME280;16776;50.958;10.994;2023-03-23T11:39:47;97650.72;;;13.67;91.36
29907;BME280;16776;50.958;10.994;2023-03-23T11:42:19;97641.38;;;13.65;90.52
29907;BME280;16776;50.958;10.994;2023-03-23T11:44:48;97669.91;;;13.63;90.75
29907;BME280;16776;50.958;10.994;2023-03-23T11:47:22;97646.13;;;13.57;90.73
29907;BME280;16776;50.958;10.994;2023-03-23T11:49:56;97640.34;;;13.52;90.90
29907;BME280;16776;50.958;10.994;2023-03-23T11:52:33;97646.34;;;13.52;90.76
29907;BME280;16776;50.958;10.994;2023-03-23T11:55:07;97642.28;;;13.48;91.23
29907;BME280;16776;50.958;10.994;2023-03-23T11:57:36;97640.84;;;13.42;90.52
29907;BME280;16776;50.958;10.994;2023-03-23T12:00:15;97643.25;;;13.46;90.68
29907;BME280;16776;50.958;10.994;2023-03-23T12:03:04;97661.22;;;13.49;90.54
29907;BME280;16776;50.958;10.994;2023-03-23T12:05:40;97642.59;;;13.42;90.52
29907;BME280;16776;50.958;10.994;2023-03-23T12:08:31;97651.00;;;13.46;90.63
29907;BME280;16776;50.958;10.994;2023-03-23T12:11:09;97654.69;;;13.41;90.77
29907;BME280;16776;50.958;10.994;2023-03-23T12:13:53;97646.03;;;13.42;90.70
29907;BME280;16776;50.958;10.994;2023-03-23T12:16:31;97663.38;;;13.40;91.18
29907;BME280;16776;50.958;10.994;2023-03-23T12:19:09;97653.03;;;13.40;91.06
29907;BME280;16776;50.958;10.994;2023-03-23T12:21:45;97657.53;;;13.37;90.97
29907;BME280;16776;50.958;10.994;2023-03-23T12:24:25;97655.88;;;13.36;91.40
29907;BME280;16776;50.958;10.994;2023-03-23T12:26:59;97653.28;;;13.36;91.73
29907;BME280;16776;50.958;10.994;2023-03-23T12:29:42;97644.28;;;13.43;91.87
29907;BME280;16776;50.958;10.994;2023-03-23T12:32:37;97655.84;;;13.52;91.83
29907;BME280;16776;50.958;10.994;2023-03-23T12:35:17;97640.94;;;13.57;92.31
29907;BME280;16776;50.958;10.994;2023-03-23T12:37:56;97644.81;;;13.65;91.90
29907;BME280;16776;50.958;10.994;2023-03-23T12:40:57;97661.16;;;13.81;91.65
29907;BME280;16776;50.958;10.994;2023-03-23T12:43:31;97656.66;;;13.85;90.87
29907;BME280;16776;50.958;10.994;2023-03-23T12:46:14;97657.91;;;13.94;91.00
29907;BME280;16776;50.958;10.994;2023-03-23T12:48:45;97636.34;;;13.93;90.76
29907;BME280;16776;50.958;10.994;2023-03-23T12:51:19;97639.59;;;13.97;90.87
29907;BME280;16776;50.958;10.994;2023-03-23T12:53:53;97646.53;;;13.96;90.54
29907;BME280;16776;50.958;10.994;2023-03-23T12:56:27;97631.19;;;13.93;90.33
29907;BME280;16776;50.958;10.994;2023-03-23T12:59:01;97640.84;;;13.90;90.60
29907;BME280;16776;50.958;10.994;2023-03-23T13:01:32;97642.72;;;13.88;90.66
29907;BME280;16776;50.958;10.994;2023-03-23T13:04:05;97644.53;;;13.86;90.51
29907;BME280;16776;50.958;10.994;2023-03-23T13:06:35;97634.34;;;13.82;90.55
29907;BME280;16776;50.958;10.994;2023-03-23T13:09:10;97629.34;;;13.79;90.79
29907;BME280;16776;50.958;10.994;2023-03-23T13:11:41;97628.44;;;13.80;90.82